• Join FlightAware (Why Join?)
  • Login
  • US Flag 
06:02AM EST


 

Airport Tracker/Info


-or-


 

Live Flight TrackerFlight Track Log ✈ ASQ5941 ✈ 10-Sep-2013 ✈ KAVP - KORD

Flight Track Log - Related Links

Times and Time Zones

All times are in EDT time to prevent confusion due to time zone crossing. See the ASQ5941 flight status page for this flight to view local times or setup timezone preferences in your user account.

Time Position Orientation Groundspeed Altitude Reporting Facility
EDT Latitude Longitude Course Direction KTS MPH feet Rate Location/Type
05:08PM 41.3544 -75.8481 341° North 186 214 6,300  Level New York Center
05:09PM 41.4219 -75.8781 342° North 216 249 8,600 1,860 Climbing New York Center
05:10PM 41.3961 -76.2769 307° West  Level Estimated
05:10PM 41.4914 -75.9111 340° North 244 281 10,100  Level New York Center
05:11PM 41.4073 -76.3877 289° West  Level Estimated
05:11PM 41.5792 -75.9539 340° North 293 337 11,000  Level New York Center
05:12PM 41.4184 -76.4986 291° West  Level Estimated
05:12PM 41.6353 -76.0472 309° West 317 365 11,000  Level New York Center
05:13PM 41.6658 -76.1550 291° West 333 383 12,300 1,200 Climbing New York Center
05:14PM 41.6981 -76.2714 290° West 340 391 13,400 1,140 Climbing New York Center
05:15PM 41.7333 -76.4050 290° West 340 391 14,600 1,080 Climbing New York Center
05:16PM 41.7692 -76.5306 291° West 354 407 15,600 1,020 Climbing New York Center
05:17PM 41.8047 -76.6533 291° West 354 407 16,700 1,020 Climbing New York Center
05:18PM 41.8381 -76.7786 290° West 354 407 17,700 960 Climbing New York Center
05:20PM 41.9092 -77.0256 291° West 368 423 19,600 960 Climbing Cleveland Center
05:21PM 41.9422 -77.1519 289° West 368 423 20,600 900 Climbing Cleveland Center
05:22PM 41.9772 -77.2814 290° West 363 418 21,500 900 Climbing Cleveland Center
05:23PM 42.0122 -77.4111 290° West 363 418 22,500 960 Climbing Cleveland Center
05:24PM 42.0447 -77.5353 289° West 363 418 23,500 1,200 Climbing Cleveland Center
05:25PM 42.0772 -77.6625 289° West 363 418 25,000 1,500 Climbing Cleveland Center
05:26PM 42.1114 -77.7842 291° West 358 412 26,500 1,500 Climbing Cleveland Center
05:27PM 42.1433 -77.9003 290° West 348 400 28,100 1,500 Climbing Cleveland Center
05:28PM 42.1711 -78.0169 288° West 337 388 29,500 1,200 Climbing Cleveland Center
05:29PM 42.2028 -78.1333 290° West 337 388 30,500 3,240 Climbing Cleveland Center
05:30PM 42.2325 -78.2528 289° West 337 388 36,000 960 Climbing Cleveland Center
05:31PM 42.2661 -78.3722 291° West 343 395 32,500 -1,200 Descending Cleveland Center
05:32PM 42.2956 -78.5003 287° West 343 395 33,600 1,080 Climbing Cleveland Center
05:33PM 42.3289 -78.6200 291° West 343 395 34,700 1,080 Climbing Cleveland Center
05:34PM 42.3581 -78.7428 288° West 343 395 35,800 600 Climbing Cleveland Center
05:35PM 42.3892 -78.8656 289° West 343 395 36,000 60 Climbing Cleveland Center
05:36PM 42.4222 -78.9969 289° West 354 407 36,000  Level Cleveland Center
05:37PM 42.4575 -79.1367 289° West 372 428 36,000  Level Cleveland Center
05:38PM 42.4861 -79.2628 287° West 384 442 36,000  Level Cleveland Center
05:39PM 42.5022 -79.4117 278° West 398 458 36,000  Level Cleveland Center
05:40PM 42.5036 -79.5636 271° West 409 471 36,000  Level Cleveland Center
05:41PM 42.5153 -79.7183 276° West 409 471 36,000  Level Cleveland Center
05:42PM 42.5206 -79.8706 273° West 409 471 36,000  Level Cleveland Center
05:43PM 42.5278 -80.0422 273° West 409 471 36,000  Level Cleveland Center
05:44PM 42.5325 -80.1972 272° West 409 471 36,000  Level Cleveland Center
05:45PM 42.5392 -80.3494 273° West 416 479 36,000  Level Cleveland Center
05:46PM 42.5456 -80.5072 273° West 416 479 36,000  Level Cleveland Center
05:47PM 42.5519 -80.6592 273° West 416 479 36,000  Level Cleveland Center
05:48PM 42.5581 -80.8114 273° West 416 479 36,000  Level Cleveland Center
05:49PM 42.5639 -80.9553 273° West 416 479 36,000  Level Cleveland Center
05:50PM 42.5675 -81.1075 272° West 416 479 36,000  Level Cleveland Center
05:51PM 42.5750 -81.2628 274° West 407 468 36,000  Level Cleveland Center
05:52PM 42.5800 -81.4178 273° West 412 474 36,000  Level Cleveland Center
05:53PM 42.6039 -81.5647 283° West 412 474 36,000  Level Cleveland Center
05:54PM 42.6297 -81.7175 283° West 412 474 36,000  Level Cleveland Center
05:55PM 42.6553 -81.8647 283° West 412 474 36,000  Level Cleveland Center
05:56PM 42.6806 -82.0150 283° West 412 474 36,000  Level Cleveland Center
05:57PM 42.7078 -82.1656 284° West 412 474 36,000  Level Cleveland Center
05:58PM 42.7328 -82.3158 283° West 412 474 36,000  Level Cleveland Center
05:59PM 42.7556 -82.4581 282° West 407 468 36,000  Level Cleveland Center
06:00PM 42.7822 -82.6031 284° West 402 463 36,000  Level Cleveland Center
06:01PM 42.8489 -82.7156 309° West 382 440 36,000  Level Cleveland Center
06:02PM 42.9242 -82.8175 315° West 376 433 36,000 -240 Level Cleveland Center
06:03PM 42.9825 -82.9272 306° West 376 433 35,600 -600 Descending Cleveland Center
06:04PM 42.9878 -83.0694 273° West 358 412 34,800 -840 Descending Cleveland Center
06:05PM 42.9822 -83.2197 267° West 378 435 34,000 -720 Descending Cleveland Center
06:06PM 42.9828 -83.3786 270° West 383 441 33,400 -780 Descending Cleveland Center
06:07PM 42.9753 -83.5117 266° West 383 441 32,500 -720 Descending Cleveland Center
06:08PM 42.9672 -83.6617 266° West 383 441 32,000 -300 Descending Cleveland Center
06:09PM 42.9592 -83.8061 266° West 388 447 32,000  Level Cleveland Center
06:11PM 42.9378 -84.0367 263° West 379 436 32,000  Level Chicago Center
06:12PM 42.9239 -84.1806 263° West 381 438 32,000  Level Chicago Center
06:13PM 42.9072 -84.3525 263° West 383 441 32,000  Level Chicago Center
06:14PM 42.8922 -84.4953 262° West 382 440 32,000  Level Chicago Center
06:15PM 42.8786 -84.6397 263° West 383 441 32,000  Level Chicago Center
06:16PM 42.8639 -84.7828 262° West 383 441 32,000  Level Chicago Center
06:17PM 42.8483 -84.9275 262° West 386 444 32,000  Level Chicago Center
06:18PM 42.8325 -85.0714 262° West 386 444 32,000 -300 Level Chicago Center
06:19PM 42.8142 -85.2469 262° West 389 448 31,400 -1,260 Descending Chicago Center
06:20PM 42.7972 -85.3947 261° West 393 452 29,400 -1,920 Descending Chicago Center
06:21PM 42.7786 -85.5422 260° West 395 455 27,500 -1,800 Descending Chicago Center
06:22PM 42.7517 -85.6856 256° West 391 450 25,700 -1,800 Descending Chicago Center
06:23PM 42.7267 -85.8267 256° West 384 442 23,800 -1,800 Descending Chicago Center
06:24PM 42.7014 -85.9656 256° West 378 435 22,100 -1,380 Descending Chicago Center
06:25PM 42.6761 -86.1022 256° West 372 428 21,000 -1,020 Descending Chicago Center
06:26PM 42.6517 -86.2386 256° West 370 426 20,000 -780 Descending Chicago Center
06:28PM 42.6211 -86.4039 256° West 374 430 19,500 -1,260 Descending Chicago Center
06:29PM 42.5953 -86.5392 256° West 371 427 17,500 -2,040 Descending Chicago Center
06:30PM 42.5714 -86.6711 256° West 362 417 15,400 -1,980 Descending Chicago Center
06:31PM 42.5406 -86.7992 252° West 359 413 13,500 -1,980 Descending Chicago Center
06:32PM 42.5075 -86.9228 250° West 350 403 11,400 -1,740 Descending Chicago Center
06:33PM 42.4750 -87.0389 249° West 333 383 10,000 -780 Descending Chicago Center
06:34PM 42.4392 -87.1731 250° West 316 364 9,900 -540 Descending Chicago Center
06:35PM 42.3833 -87.2194 212° Southwest 279 321 9,000 -480 Descending Chicago Center
06:36PM 42.3106 -87.2183 179° South 265 305 9,000  Level Chicago Center
06:37PM 42.2283 -87.2175 180° South 262 302 9,000 -300 Level Chicago Center
06:38PM 42.1550 -87.2175 180° South 264 304 8,500 -720 Descending Chicago Center
06:39PM 42.0828 -87.2172 180° South 261 300 7,600 -780 Descending Chicago Center
06:40PM 42.0281 -87.1761 151° Southeast 249 287 6,900 -300 Descending Chicago Center
06:41PM 41.9792 -87.1719 176° South 209 241 7,000  Climbing Chicago Center
06:42PM 41.9836 -87.2447 275° West 177 204 7,000  Level Chicago Center
06:43PM 41.9831 -87.3058 269° West 165 190 7,000  Level Chicago Center
06:44PM 41.9831 -87.3661 270° West 164 189 7,000  Level Chicago Center
06:45PM 41.9836 -87.4253 271° West 161 185 7,000 -300 Level Chicago Center
06:46PM 41.9831 -87.4844 269° West 160 184 6,500 -900 Descending Chicago Center
06:47PM 41.9833 -87.5619 270° West 174 200 5,200 -1,080 Descending Chicago Center
06:48PM 41.9839 -87.6244 271° West 172 198 4,300 -840 Descending Chicago Center
06:49PM 41.9833 -87.6833 269° West 167 192 3,500 -780 Descending Chicago Center
06:50PM 41.9836 -87.7442 270° West 165 190 2,700 -780 Descending Chicago Center
06:51PM 41.9839 -87.8022 270° West 162 186 1,900 -780 Descending Chicago Center
06:52PM 41.9844 -87.8558 271° West 140 161 1,200 -720 Descending Chicago Center